createdAt,value
2018-12-16T00:01:22.782Z,-6.18
2018-12-16T00:03:53.698Z,-6.18
2018-12-16T00:06:24.506Z,-6.27
2018-12-16T00:08:53.420Z,-6.31
2018-12-16T00:11:25.066Z,-6.32
2018-12-16T00:13:55.990Z,-6.40
2018-12-16T00:16:24.924Z,-6.37
2018-12-16T00:18:53.772Z,-6.40
2018-12-16T00:21:22.614Z,-6.39
2018-12-16T00:23:51.481Z,-6.39
2018-12-16T00:26:20.339Z,-6.47
2018-12-16T00:28:49.305Z,-6.41
2018-12-16T00:31:18.177Z,-6.39
2018-12-16T00:33:47.044Z,-6.43
2018-12-16T00:36:16.098Z,-6.49
2018-12-16T00:38:45.048Z,-6.48
2018-12-16T00:41:13.913Z,-6.60
2018-12-16T00:43:42.837Z,-6.59
2018-12-16T00:46:11.869Z,-6.63
2018-12-16T00:48:41.943Z,-6.68
2018-12-16T00:51:10.904Z,-6.69
2018-12-16T00:53:39.982Z,-6.74
2018-12-16T00:56:08.875Z,-6.79
2018-12-16T00:58:37.706Z,-6.78
2018-12-16T01:01:06.647Z,-6.82
2018-12-16T01:03:35.813Z,-6.80
2018-12-16T01:06:05.032Z,-6.86
2018-12-16T01:08:33.987Z,-6.78
2018-12-16T01:11:02.865Z,-6.71
2018-12-16T01:13:31.833Z,-6.76
2018-12-16T01:16:00.666Z,-6.81
2018-12-16T01:18:29.522Z,-6.84
2018-12-16T01:20:58.396Z,-6.81
2018-12-16T01:23:27.242Z,-6.83
2018-12-16T01:25:56.262Z,-6.83
2018-12-16T01:28:25.126Z,-6.88
2018-12-16T01:30:54.033Z,-6.92
2018-12-16T01:33:25.100Z,-6.91
2018-12-16T01:35:53.957Z,-6.96
2018-12-16T01:38:22.872Z,-6.93
2018-12-16T01:40:51.734Z,-6.96
2018-12-16T01:43:20.590Z,-6.92
2018-12-16T01:45:50.498Z,-7.00
2018-12-16T01:48:19.361Z,-7.03
2018-12-16T01:50:48.205Z,-7.07
2018-12-16T01:53:17.071Z,-7.08
2018-12-16T01:55:45.916Z,-7.06
2018-12-16T01:58:14.749Z,-7.09
2018-12-16T02:00:44.759Z,-7.10
2018-12-16T02:03:13.681Z,-7.07
2018-12-16T02:05:42.702Z,-7.08
2018-12-16T02:08:11.647Z,-6.99
2018-12-16T02:10:40.518Z,-7.06
2018-12-16T02:13:09.423Z,-7.14
2018-12-16T02:15:38.490Z,-7.13
2018-12-16T02:18:07.422Z,-7.18
2018-12-16T02:20:36.246Z,-7.24
2018-12-16T02:23:05.088Z,-7.26
2018-12-16T02:25:34.343Z,-7.23
2018-12-16T02:28:03.197Z,-7.19
2018-12-16T02:30:32.086Z,-7.22
2018-12-16T02:33:01.930Z,-7.23
2018-12-16T02:35:30.873Z,-7.27
2018-12-16T02:37:59.758Z,-7.20
2018-12-16T02:40:28.602Z,-7.25
2018-12-16T02:42:57.810Z,-7.24
2018-12-16T02:45:27.508Z,-7.26
2018-12-16T02:47:56.356Z,-7.30
2018-12-16T02:50:25.188Z,-7.34
2018-12-16T02:52:54.034Z,-7.35
2018-12-16T02:55:22.959Z,-7.31
2018-12-16T02:57:51.787Z,-7.38
2018-12-16T03:00:20.707Z,-7.36
2018-12-16T03:02:49.626Z,-7.33
2018-12-16T03:05:18.480Z,-7.35
2018-12-16T03:07:47.368Z,-7.36
2018-12-16T03:10:16.219Z,-7.35
2018-12-16T03:12:45.039Z,-7.29
2018-12-16T03:15:14.008Z,-7.14
2018-12-16T03:17:42.955Z,-7.15
2018-12-16T03:20:12.027Z,-7.11
2018-12-16T03:22:40.862Z,-7.07
2018-12-16T03:25:09.807Z,-6.99
2018-12-16T03:27:38.734Z,-6.96
2018-12-16T03:30:09.179Z,-6.86
2018-12-16T03:32:38.190Z,-6.83
2018-12-16T03:35:07.228Z,-6.73
2018-12-16T03:37:36.093Z,-6.77
2018-12-16T03:40:06.023Z,-6.82
2018-12-16T03:42:34.910Z,-6.80
2018-12-16T03:45:04.175Z,-6.85
2018-12-16T03:47:33.010Z,-6.90
2018-12-16T03:50:02.064Z,-6.91
2018-12-16T03:52:30.969Z,-6.65
2018-12-16T03:54:59.878Z,-6.62
2018-12-16T03:57:28.751Z,-6.67
2018-12-16T03:59:57.616Z,-6.61
2018-12-16T04:02:26.454Z,-6.31
2018-12-16T04:04:55.294Z,-6.28
2018-12-16T04:07:24.235Z,-6.36
2018-12-16T04:09:53.092Z,-6.06
2018-12-16T04:12:21.919Z,-5.91
2018-12-16T04:14:50.772Z,-5.99
2018-12-16T04:17:19.665Z,-6.07
2018-12-16T04:19:48.581Z,-6.10
2018-12-16T04:22:17.469Z,-6.14
2018-12-16T04:24:46.446Z,-6.09
2018-12-16T04:27:15.315Z,-6.07
2018-12-16T04:29:44.171Z,-5.91
2018-12-16T04:32:13.008Z,-5.81
2018-12-16T04:34:41.922Z,-5.76
2018-12-16T04:37:10.894Z,-5.57
2018-12-16T04:39:39.915Z,-5.45
2018-12-16T04:42:08.765Z,-5.45
2018-12-16T04:44:37.693Z,-5.33
2018-12-16T04:47:06.519Z,-5.35
2018-12-16T04:49:35.454Z,-5.21
2018-12-16T04:52:04.479Z,-5.15
2018-12-16T04:54:33.447Z,-5.04
2018-12-16T04:57:02.326Z,-5.06
2018-12-16T04:59:31.230Z,-5.14
2018-12-16T05:02:00.111Z,-5.20
2018-12-16T05:04:28.948Z,-5.20
2018-12-16T05:06:58.331Z,-5.13
2018-12-16T05:09:27.152Z,-5.12
2018-12-16T05:11:56.011Z,-5.03
2018-12-16T05:14:24.920Z,-5.13
2018-12-16T05:16:53.872Z,-5.16
2018-12-16T05:19:22.759Z,-5.03
2018-12-16T05:21:51.661Z,-5.06
2018-12-16T05:24:20.507Z,-4.97
2018-12-16T05:26:49.409Z,-4.98
2018-12-16T05:29:18.251Z,-5.02
2018-12-16T05:31:47.079Z,-4.84
2018-12-16T05:34:15.908Z,-4.87
2018-12-16T05:36:44.787Z,-4.87
2018-12-16T05:39:13.638Z,-4.90
2018-12-16T05:41:42.559Z,-4.98
2018-12-16T05:44:11.481Z,-5.12
2018-12-16T05:46:40.427Z,-5.11
2018-12-16T05:49:09.722Z,-5.05
2018-12-16T05:51:38.574Z,-5.18
2018-12-16T05:54:07.418Z,-5.24
2018-12-16T05:56:36.305Z,-5.08
2018-12-16T05:59:05.477Z,-5.21
2018-12-16T06:01:34.312Z,-5.31
2018-12-16T06:04:03.152Z,-5.45
2018-12-16T06:06:32.085Z,-5.43
2018-12-16T06:09:00.911Z,-5.42
2018-12-16T06:11:31.729Z,-5.38
2018-12-16T06:14:00.583Z,-5.33
2018-12-16T06:16:29.415Z,-5.24
2018-12-16T06:18:58.275Z,-5.16
2018-12-16T06:21:27.261Z,-5.12
2018-12-16T06:23:56.099Z,-5.06
2018-12-16T06:26:24.951Z,-5.01
2018-12-16T06:28:53.792Z,-4.98
2018-12-16T06:31:22.623Z,-4.95
2018-12-16T06:33:51.507Z,-5.00
2018-12-16T06:36:20.417Z,-5.05
2018-12-16T06:38:49.509Z,-5.08
2018-12-16T06:41:18.402Z,-5.09
2018-12-16T06:43:47.474Z,-5.13
2018-12-16T06:46:16.325Z,-5.17
2018-12-16T06:48:45.194Z,-5.18
2018-12-16T06:51:14.026Z,-5.19
2018-12-16T06:53:42.944Z,-5.18
2018-12-16T06:56:11.861Z,-5.13
2018-12-16T06:58:40.742Z,-5.07
2018-12-16T07:01:09.614Z,-4.97
2018-12-16T07:03:38.563Z,-4.91
2018-12-16T07:06:07.411Z,-4.90
2018-12-16T07:08:37.027Z,-4.87
2018-12-16T07:11:05.886Z,-4.82
2018-12-16T07:13:34.781Z,-4.73
2018-12-16T07:16:03.627Z,-4.71
2018-12-16T07:18:32.463Z,-4.63
2018-12-16T07:21:01.315Z,-4.54
2018-12-16T07:23:30.155Z,-4.49
2018-12-16T07:25:59.015Z,-4.32
2018-12-16T07:28:28.020Z,-4.22
2018-12-16T07:30:56.929Z,-4.20
2018-12-16T07:33:27.062Z,-4.15
2018-12-16T07:35:55.926Z,-3.95
2018-12-16T07:38:24.782Z,-3.82
2018-12-16T07:40:53.744Z,-3.70
2018-12-16T07:43:22.650Z,-3.72
2018-12-16T07:45:51.528Z,-3.56
2018-12-16T07:48:20.705Z,-3.52
2018-12-16T07:50:49.539Z,-3.57
2018-12-16T07:53:18.470Z,-3.45
2018-12-16T07:55:47.343Z,-3.47
2018-12-16T07:58:16.313Z,-3.30
2018-12-16T08:00:45.177Z,-3.25
2018-12-16T08:03:14.121Z,-3.24
2018-12-16T08:05:42.967Z,-3.25
2018-12-16T08:08:11.857Z,-3.16
2018-12-16T08:10:40.715Z,-3.09
2018-12-16T08:13:09.571Z,-2.93
2018-12-16T08:15:38.433Z,-3.03
2018-12-16T08:18:07.481Z,-2.98
2018-12-16T08:20:36.359Z,-2.93
2018-12-16T08:23:05.244Z,-2.81
2018-12-16T08:25:34.147Z,-2.79
2018-12-16T08:28:03.165Z,-2.72
2018-12-16T08:30:32.255Z,-2.62
2018-12-16T08:33:02.936Z,-2.41
2018-12-16T08:35:31.763Z,-2.42
2018-12-16T08:38:00.646Z,-2.28
2018-12-16T08:40:29.565Z,-2.30
2018-12-16T08:42:58.405Z,-2.26
2018-12-16T08:45:27.333Z,-2.30
2018-12-16T08:47:56.203Z,-2.15
2018-12-16T08:50:25.054Z,-2.01
2018-12-16T08:52:53.922Z,-2.05
2018-12-16T08:55:22.787Z,-2.03
2018-12-16T08:57:51.978Z,-1.98
2018-12-16T09:00:20.852Z,-1.93
2018-12-16T09:02:49.952Z,-1.86
2018-12-16T09:05:18.883Z,-1.75
2018-12-16T09:07:47.792Z,-1.76
2018-12-16T09:10:16.755Z,-1.72
2018-12-16T09:12:45.684Z,-1.76
2018-12-16T09:15:14.518Z,-1.66
2018-12-16T09:17:43.430Z,-1.63
2018-12-16T09:20:12.281Z,-1.42
2018-12-16T09:22:41.171Z,-1.16
2018-12-16T09:25:10.100Z,-0.92
2018-12-16T09:27:45.781Z,-0.79
2018-12-16T09:30:14.660Z,-0.66
2018-12-16T09:32:43.559Z,-0.64
2018-12-16T09:35:12.566Z,-0.73
2018-12-16T09:37:41.495Z,-0.61
2018-12-16T09:40:10.531Z,-0.65
2018-12-16T09:42:39.386Z,-0.67
2018-12-16T09:45:08.253Z,-0.70
2018-12-16T09:47:37.073Z,-0.78
2018-12-16T09:50:06.103Z,-0.74
2018-12-16T09:52:35.034Z,-0.61
2018-12-16T09:55:04.533Z,-0.68
2018-12-16T09:57:33.369Z,-0.60
2018-12-16T10:00:02.386Z,-0.50
2018-12-16T10:02:32.071Z,-0.30
2018-12-16T10:05:00.914Z,-0.43
2018-12-16T10:07:30.076Z,-0.66
2018-12-16T10:09:58.909Z,-0.41
2018-12-16T10:12:27.768Z,-0.34
2018-12-16T10:14:56.638Z,-0.31
2018-12-16T10:17:25.574Z,-0.12
2018-12-16T10:19:54.713Z,-0.28
2018-12-16T10:22:23.580Z,-0.28
2018-12-16T10:24:52.448Z,-0.42
2018-12-16T10:27:22.024Z,-0.47
2018-12-16T10:29:50.950Z,-0.27
2018-12-16T10:32:19.784Z,-0.50
2018-12-16T10:34:48.783Z,-0.54
2018-12-16T10:37:17.665Z,-0.54
2018-12-16T10:39:46.505Z,-0.52
2018-12-16T10:42:15.515Z,-0.44
2018-12-16T10:44:44.403Z,-0.56
2018-12-16T10:47:13.301Z,-0.49
2018-12-16T10:49:42.387Z,-0.42
2018-12-16T10:52:11.695Z,-0.23
2018-12-16T10:54:40.662Z,-0.26
2018-12-16T11:50:15.182Z,-0.33
2018-12-16T11:52:44.019Z,-0.01
2018-12-16T11:55:13.173Z,0.22
2018-12-16T11:57:43.564Z,0.51
2018-12-16T12:00:12.547Z,0.67
2018-12-16T12:02:41.660Z,0.67
2018-12-16T12:05:12.544Z,0.67
2018-12-16T12:07:42.089Z,0.68
2018-12-16T12:10:11.030Z,0.60
2018-12-16T12:12:40.171Z,0.58
2018-12-16T12:15:09.288Z,0.34
2018-12-16T12:17:38.368Z,0.48
2018-12-16T12:20:07.575Z,0.39
2018-12-16T12:22:36.393Z,0.19
2018-12-16T12:25:05.481Z,-0.10
2018-12-16T12:27:34.386Z,-0.11
2018-12-16T12:30:03.420Z,0.09
2018-12-16T12:32:32.483Z,-0.04
2018-12-16T12:35:01.430Z,0.05
2018-12-16T12:37:30.343Z,-0.09
2018-12-16T12:39:59.187Z,-0.21
2018-12-16T12:42:28.042Z,-0.25
2018-12-16T12:44:56.923Z,-0.38
2018-12-16T12:47:25.870Z,-0.40
2018-12-16T12:49:54.907Z,-0.55
2018-12-16T12:52:23.746Z,-0.55
2018-12-16T12:54:52.635Z,-0.50
2018-12-16T12:57:21.583Z,-0.52
2018-12-16T12:59:50.410Z,-0.51
2018-12-16T13:02:19.258Z,-0.41
2018-12-16T13:04:48.281Z,-0.58
2018-12-16T13:07:17.204Z,-0.41
2018-12-16T13:09:46.042Z,-0.49
2018-12-16T13:12:14.886Z,-0.49
2018-12-16T13:14:43.738Z,-0.45
2018-12-16T13:17:12.582Z,-0.57
2018-12-16T13:19:41.444Z,-0.54
2018-12-16T13:22:10.340Z,-0.66
2018-12-16T13:24:49.370Z,-0.58
2018-12-16T13:27:18.214Z,-0.56
2018-12-16T13:29:47.098Z,-0.63
2018-12-16T13:32:15.956Z,-0.59
2018-12-16T13:34:44.888Z,-0.47
2018-12-16T13:37:13.920Z,-0.51
2018-12-16T13:39:42.791Z,-0.43
2018-12-16T13:42:11.691Z,-0.59
2018-12-16T13:44:40.601Z,-0.62
2018-12-16T13:47:09.479Z,-0.56
2018-12-16T13:49:38.422Z,-0.67
2018-12-16T13:52:07.384Z,-0.66
2018-12-16T13:54:36.223Z,-0.64
2018-12-16T13:57:05.053Z,-0.76
2018-12-16T13:59:33.925Z,-0.78
2018-12-16T14:02:02.980Z,-0.72
2018-12-16T14:04:32.179Z,-0.74
2018-12-16T14:07:00.968Z,-0.73
2018-12-16T14:09:29.943Z,-0.85
2018-12-16T14:11:58.778Z,-0.88
2018-12-16T14:14:27.665Z,-0.82
2018-12-16T14:16:56.582Z,-0.82
2018-12-16T14:19:25.416Z,-0.95
2018-12-16T14:21:54.245Z,-1.00
2018-12-16T14:24:23.074Z,-0.99
2018-12-16T14:26:51.978Z,-0.91
2018-12-16T14:29:20.912Z,-1.02
2018-12-16T14:31:49.750Z,-1.05
2018-12-16T14:34:18.597Z,-1.13
2018-12-16T14:36:47.487Z,-1.02
2018-12-16T14:39:16.427Z,-1.08
2018-12-16T14:41:45.258Z,-1.08
2018-12-16T14:44:14.148Z,-1.09
2018-12-16T14:46:43.007Z,-1.13
2018-12-16T14:49:11.859Z,-1.18
2018-12-16T14:51:40.723Z,-1.17
2018-12-16T14:54:09.739Z,-1.19
2018-12-16T14:56:38.591Z,-1.20
2018-12-16T14:59:07.529Z,-1.17
2018-12-16T15:01:36.474Z,-1.29
2018-12-16T15:04:05.331Z,-1.26
2018-12-16T15:06:34.260Z,-1.33
2018-12-16T15:09:03.521Z,-1.23
2018-12-16T15:11:34.362Z,-1.33
2018-12-16T15:14:03.226Z,-1.34
2018-12-16T15:16:32.162Z,-1.34
2018-12-16T15:19:00.991Z,-1.42
2018-12-16T15:21:29.906Z,-1.44
2018-12-16T15:23:58.846Z,-1.44
2018-12-16T15:26:27.769Z,-1.40
2018-12-16T15:28:56.619Z,-1.36
2018-12-16T15:31:25.463Z,-1.35
2018-12-16T15:33:54.316Z,-1.37
2018-12-16T15:36:23.225Z,-1.37
2018-12-16T15:38:52.113Z,-1.43
2018-12-16T15:41:22.025Z,-1.42
2018-12-16T15:43:50.879Z,-1.34
2018-12-16T15:46:19.743Z,-1.37
2018-12-16T15:48:48.735Z,-1.42
2018-12-16T15:51:17.580Z,-1.43
2018-12-16T15:53:46.667Z,-1.43
2018-12-16T15:56:15.572Z,-1.49
2018-12-16T15:58:44.475Z,-1.44
2018-12-16T16:01:13.358Z,-1.45
2018-12-16T16:03:42.308Z,-1.31
2018-12-16T16:06:11.290Z,-1.40
2018-12-16T16:08:40.154Z,-1.37
2018-12-16T16:11:10.058Z,-1.28
2018-12-16T16:13:39.080Z,-1.24
2018-12-16T16:16:07.920Z,-1.26
2018-12-16T16:18:36.875Z,-1.24
2018-12-16T16:21:05.781Z,-1.33
2018-12-16T16:23:34.764Z,-1.33
2018-12-16T16:26:03.613Z,-1.43
2018-12-16T16:28:32.522Z,-1.38
2018-12-16T16:31:01.364Z,-1.41
2018-12-16T16:33:30.346Z,-1.36
2018-12-16T16:35:59.259Z,-1.32
2018-12-16T16:38:28.090Z,-1.27
2018-12-16T16:40:57.449Z,-1.21
2018-12-16T16:43:26.363Z,-1.22
2018-12-16T16:45:55.284Z,-1.30
2018-12-16T16:48:24.292Z,-1.38
2018-12-16T16:50:53.227Z,-1.06
2018-12-16T16:53:22.069Z,-0.61
2018-12-16T16:55:50.927Z,-0.54
2018-12-16T16:58:19.912Z,-0.76
2018-12-16T17:00:48.771Z,-0.95
2018-12-16T17:03:17.606Z,-1.07
2018-12-16T17:05:46.467Z,-1.20
2018-12-16T17:08:15.315Z,-1.17
2018-12-16T17:10:44.150Z,-1.23
2018-12-16T17:13:13.018Z,-1.21
2018-12-16T17:15:42.307Z,-1.25
2018-12-16T17:18:11.252Z,-1.30
2018-12-16T17:20:40.098Z,-1.31
2018-12-16T17:23:08.966Z,-1.27
2018-12-16T17:25:37.824Z,-1.20
2018-12-16T17:28:06.764Z,-1.21
2018-12-16T17:30:35.651Z,-1.17
2018-12-16T17:33:06.024Z,-1.23
2018-12-16T17:35:35.075Z,-1.21
2018-12-16T17:38:04.024Z,-1.20
2018-12-16T17:40:33.212Z,-1.13
2018-12-16T17:43:02.105Z,-1.15
2018-12-16T17:45:31.026Z,-1.10
2018-12-16T17:47:59.878Z,-1.14
2018-12-16T17:50:28.779Z,-1.19
2018-12-16T17:52:57.695Z,-1.08
2018-12-16T17:55:26.556Z,-1.04
2018-12-16T17:57:55.388Z,-1.12
2018-12-16T18:00:24.343Z,-1.16
2018-12-16T18:02:53.543Z,-1.06
2018-12-16T18:05:22.467Z,-1.24
2018-12-16T18:07:51.299Z,-1.17
2018-12-16T18:10:20.164Z,-1.15
2018-12-16T18:12:49.211Z,-1.10
2018-12-16T18:15:18.105Z,-1.21
2018-12-16T18:17:47.011Z,-1.14
2018-12-16T18:20:15.853Z,-1.06
2018-12-16T18:22:44.797Z,-1.11
2018-12-16T18:25:13.706Z,-1.06
2018-12-16T18:27:42.581Z,-1.13
2018-12-16T18:30:11.431Z,-1.17
2018-12-16T18:32:40.358Z,-0.77
2018-12-16T18:35:09.418Z,-0.54
2018-12-16T18:37:38.846Z,-0.64
2018-12-16T18:40:07.897Z,-0.74
2018-12-16T18:42:36.725Z,-0.82
2018-12-16T18:45:06.200Z,-0.80
2018-12-16T18:47:35.059Z,-0.87
2018-12-16T18:50:06.346Z,-0.99
2018-12-16T18:52:35.342Z,-0.98
2018-12-16T18:55:04.356Z,-0.94
2018-12-16T18:57:33.263Z,-0.98
2018-12-16T19:00:02.139Z,-0.97
2018-12-16T19:02:32.979Z,-0.99
2018-12-16T19:05:01.931Z,-1.08
2018-12-16T19:07:31.140Z,-0.95
2018-12-16T19:10:00.003Z,-0.92
2018-12-16T19:12:28.851Z,-0.93
2018-12-16T19:14:58.275Z,-0.89
2018-12-16T19:17:27.130Z,-0.93
2018-12-16T19:19:56.050Z,-0.98
2018-12-16T19:22:25.058Z,-0.95
2018-12-16T19:24:53.974Z,-0.90
2018-12-16T19:27:22.894Z,-0.92
2018-12-16T19:29:51.821Z,-0.91
2018-12-16T19:32:20.753Z,-0.96
2018-12-16T19:34:49.693Z,-0.89
2018-12-16T19:37:18.650Z,-0.87
2018-12-16T19:39:47.550Z,-0.99
2018-12-16T19:42:16.425Z,-0.93
2018-12-16T19:44:45.355Z,-0.85
2018-12-16T19:47:14.291Z,-0.87
2018-12-16T19:49:43.274Z,-0.72
2018-12-16T19:52:12.160Z,-0.67
2018-12-16T19:54:41.411Z,-0.54
2018-12-16T19:57:10.401Z,-0.59
2018-12-16T19:59:39.243Z,-0.82
2018-12-16T20:02:08.268Z,-0.81
2018-12-16T20:04:42.487Z,-0.71
2018-12-16T20:07:11.351Z,-0.65
2018-12-16T20:09:40.212Z,-0.56
2018-12-16T20:12:09.349Z,-0.75
2018-12-16T20:14:38.182Z,-0.84
2018-12-16T20:17:07.111Z,-0.80
2018-12-16T20:19:37.142Z,-0.60
2018-12-16T20:22:06.102Z,-0.72
2018-12-16T20:24:34.972Z,-0.76
2018-12-16T20:27:03.832Z,-0.71
2018-12-16T20:29:32.684Z,-0.70
2018-12-16T20:32:01.537Z,-0.72
2018-12-16T20:34:30.644Z,-0.62
2018-12-16T20:36:59.505Z,-0.65
2018-12-16T20:39:28.450Z,-0.73
2018-12-16T20:41:57.308Z,-0.75
2018-12-16T20:44:26.176Z,-0.85
2018-12-16T20:46:55.037Z,-0.86
2018-12-16T20:49:23.987Z,-0.76
2018-12-16T20:51:52.833Z,-0.76
2018-12-16T20:54:21.675Z,-0.81
2018-12-16T20:56:50.716Z,-0.79
2018-12-16T20:59:19.591Z,-0.79
2018-12-16T21:01:48.453Z,-0.83
2018-12-16T21:04:17.447Z,-0.79
2018-12-16T21:06:46.440Z,-0.40
2018-12-16T21:09:15.343Z,-0.49
2018-12-16T21:11:49.619Z,-0.57
2018-12-16T21:14:23.830Z,-0.72
2018-12-16T21:16:58.103Z,-0.75
2018-12-16T21:19:27.130Z,-0.66
2018-12-16T21:21:56.058Z,-0.72
2018-12-16T21:24:25.070Z,-0.71
2018-12-16T21:26:54.204Z,-0.70
2018-12-16T21:29:23.120Z,-0.64
2018-12-16T21:31:52.066Z,-0.73
2018-12-16T21:34:20.960Z,-0.66
2018-12-16T21:36:49.972Z,-0.69
2018-12-16T21:39:18.836Z,-0.76
2018-12-16T21:41:47.913Z,-0.78
2018-12-16T21:44:16.884Z,-0.81
2018-12-16T21:46:45.771Z,-0.77
2018-12-16T21:49:14.635Z,-0.79
2018-12-16T21:51:43.495Z,-0.68
2018-12-16T21:54:12.412Z,-0.66
2018-12-16T21:56:41.354Z,-0.67
2018-12-16T21:59:10.316Z,-0.73
2018-12-16T22:01:39.251Z,-0.71
2018-12-16T22:04:10.350Z,-0.72
2018-12-16T22:06:39.240Z,-0.69
2018-12-16T22:09:08.527Z,-0.69
2018-12-16T22:11:38.895Z,-0.54
2018-12-16T22:14:07.807Z,-0.56
2018-12-16T22:16:36.708Z,-0.65
2018-12-16T22:19:05.567Z,-0.61
2018-12-16T22:21:34.490Z,-0.67
2018-12-16T22:24:03.318Z,-0.61
2018-12-16T22:26:32.178Z,-0.59
2018-12-16T22:29:01.052Z,-0.58
2018-12-16T22:31:29.947Z,-0.62
2018-12-16T22:33:58.808Z,-0.60
2018-12-16T22:36:27.752Z,-0.59
2018-12-16T22:38:56.758Z,-0.51
2018-12-16T22:41:25.660Z,-0.51
2018-12-16T22:43:54.689Z,-0.53
2018-12-16T22:46:23.810Z,-0.48
2018-12-16T22:48:52.746Z,-0.52
2018-12-16T22:51:21.660Z,-0.45
2018-12-16T22:53:50.509Z,-0.54
2018-12-16T22:56:19.355Z,-0.50
2018-12-16T22:58:54.205Z,-0.40
2018-12-16T23:01:19.162Z,-0.56
2018-12-16T23:03:48.067Z,-0.54
2018-12-16T23:06:17.215Z,-0.47
2018-12-16T23:08:46.155Z,-0.47
2018-12-16T23:11:15.143Z,-0.42
2018-12-16T23:13:43.988Z,-0.41
2018-12-16T23:16:12.940Z,-0.35
2018-12-16T23:18:41.916Z,-0.39
2018-12-16T23:21:11.248Z,-0.42
2018-12-16T23:23:40.262Z,-0.41
2018-12-16T23:26:09.186Z,-0.46
2018-12-16T23:28:38.050Z,-0.49
2018-12-16T23:31:07.137Z,-0.55
2018-12-16T23:33:36.062Z,-0.54
2018-12-16T23:36:05.963Z,-0.49
2018-12-16T23:38:34.823Z,-0.42
2018-12-16T23:41:03.659Z,-0.42
2018-12-16T23:43:32.601Z,-0.37
2018-12-16T23:46:01.455Z,-0.35
2018-12-16T23:48:30.391Z,-0.38
2018-12-16T23:51:00.407Z,-0.41
2018-12-16T23:53:29.350Z,-0.28
2018-12-16T23:55:58.309Z,-0.08
2018-12-16T23:58:27.274Z,-0.07
